Central Sonoma County Latest

37 Stations

15 Minute Data | America/Los_Angeles
as of 5/10/26 1:03 PM PDT
Station Date Time Temp (°F) RH (%) Dew Pt (°F) Wind Spd (mph) Wind Dir (°) Wind Gust (mph) Latest Rain (In) Daily Rain (In) Daily Max Temp (°F) Daily Min Temp (°F)
Windsor-NW (Ranch 8) 5/10/26 1300 70.6   6.5 66   15 58.9   0.9 3.4   1.1 WSW | 238 9.4   2.4 0.00 0.00 70.6   7.9 51.4   3.2
Windsor-East (Ranch 16) 5/10/26 1300 70.6   6.0 58   12 55.0   1.0 3.1   0.8 SW | 235 8.3   0.3 0.00 0.00 71.5   5.9 51.6   6.4
Mark West-North (Ranch 14) 5/10/26 1300 70.4   5.5 55   9 53.7   0.3 2.5   0.8 S | 181 5.5   2.6 0.00 0.00 71.1   5.6 51.4   4.4
Windsor-SE (Silk Rd) 5/10/26 1300 69.0   7.0 61   11 55.1   1.0 2.6   0.9 SSE | 162 7.5   1.2 0.00 0.00 69.7   6.9 51.6   7.1
Fulton-NW (Ranch 5) 5/10/26 1300 71.1   6.0 56   10 54.6   0.3 2.3   1.4 SSE | 165 7.2   1.3 0.00 0.00 72.1   5.7 51.4   5.1
Bisordi (Fulton) 5/10/26 1300 69.4   6.9 66   14 57.7   0.1 3.0   0.0 S | 190 6.8   0.8 0.00 0.00 69.6   6.7 51.8   5.6
Windsor-South (Laughlin Rd) 5/10/26 1300 71.4   6.5 55   6 54.2   3.0 - - - 0.00 0.00 71.8   6.9 51.2   4.7
Fulton-SE (Barnes Rd) 5/10/26 1300 69.6   6.8 61   13 55.6   0.6 0.0   0.0 N | 0 0.0   0.0 0.00 0.00 70.9   5.5 51.8   4.6
Fulton-SW (Ranch 21) 5/10/26 1300 70.0   4.7 58   5 54.6   1.6 4.2   1.1 SW | 228 7.7   2.0 0.00 0.00 70.7   4.3 50.9   4.7
NW Santa Rosa (Piner Road) 5/10/26 1300 68.8   5.1 67   3 57.4   3.8 3.0   1.1 SW | 216 8.6   0.4 0.00 0.00 69.4   4.7 51.0   5.5
River Rd South (Denner Ranch) 5/10/26 1300 69.3   5.3 61   4 55.4   2.9 5.1   2.6 SE | 138 9.6   3.5 - - 70.2   5.5 50.6   6.1
West Santa Rosa (LOV Vineyard) 5/10/26 1300 68.6   5.6 63   5 55.4   3.1 3.4   1.4 SW | 217 7.9   1.4 0.00 0.00 69.5   5.5 50.8   5.1
Guerneville Rd (Prokopakis) 5/10/26 1300 73.2   5.4 55   4 56.2   3.0 - - - 0.00 0.00 73.5   5.8 51.4   4.8
SunnyView Vineyard (SCWC) 5/10/26 1300 70.3   3.6 59   3 55.4   2.1 3.7   0.2 SW | 222 7.9   0.3 0.00 0.00 71.2   4.5 50.7   7.1
Guerneville Rd West (Balletto) 5/10/26 1300 68.5   5.3 67   4 57.0   3.2 3.1   2.3 S | 189 7.3   2.4 0.00 0.00 69.9   5.3 51.0   5.5
Sanchietti Ranch 5/10/26 1300 71.7   2.8 67   3 60.0   1.5 3.9   1.7 S | 181 7.5   2.8 0.00 0.00 71.7   3.3 51.8   5.7
Occidental Rd (Sebastopol) 5/10/26 1300 70.3   3.2 98   10 69.8   0.1 3.0   1.7 SSW | 196 7.9   1.3 0.00 0.00 70.8   4.3 50.5   5.5
Harper's Rest (Windsor-West) 5/10/26 1300 70.4   5.9 60   10 55.9   0.5 3.3   0.6 ESE | 105 8.6   0.8 0.00 0.00 71.2   5.9 49.7   5.5
Lower Westside Rd (Ranch 12) 5/10/26 1300 72.1   5.7 57   9 56.1   0.4 2.3   1.9 S | 188 6.8   1.4 0.00 0.00 73.6   4.7 50.5   5.1
Guerneville (Laughlin Rd) 5/10/26 1300 76.4   3.9 51   8 57.1   1.1 3.4   1.8 SSE | 155 8.2   0.7 0.00 0.00 76.4   4.8 50.2   2.0
Korbel (Winery) 5/10/26 1300 74.8   6.5 57   12 58.5   0.7 2.0   0.2 ESE | 109 5.6   0.4 0.00 0.00 74.9   6.9 51.5   1.6
Forestville (Shone Farms) 5/10/26 1300 70.1   6.3 62   9 56.4   1.5 2.5   1.0 SSW | 203 7.5   0.2 0.00 0.00 72.4   5.3 48.9   3.0
Forestville-NE (Ranch 30) 5/10/26 1300 71.7   5.9 62   9 58.1   1.2 3.1   1.2 SSW | 208 7.8   0.6 0.00 0.00 72.2   7.0 49.7   5.0
Foggy Bend (Ranch 41) 5/10/26 1300 71.0   5.8 66   9 58.9   1.4 2.6   1.3 SSE | 155 7.2   0.7 0.00 0.00 71.8   5.9 51.0   4.8
Last Stop 5/10/26 1300 72.0   5.8 66   9 60.1   1.1 3.0   1.5 SE | 128 7.5   2.6 0.00 0.00 72.0   5.9 50.6   6.8
Green Valley Vineyard 5/10/26 1300 70.7   2.6 63   5 57.6   0.0 3.3   1.0 ESE | 106 7.9   1.7 0.00 0.00 71.6   2.8 49.3   3.9
Park Royal 5/10/26 1300 70.2   4.2 55   1 53.6   3.3 - - - 0.00 0.00 71.7   3.4 50.6   5.4
Merino 5/10/26 1300 69.1   4.1 67   2 57.8   2.9 3.0   3.5 SSW | 197 6.9   4.5 0.00 0.00 70.0   3.9 51.1   7.5
Green Valley (Sanchietti) 5/10/26 1300 72.8   3.8 - - - - - - - 74.3   3.3 49.1   5.0
Keefer Ranch (Green Valley) 5/10/26 1300 70.8   2.7 67   7 59.5   0.4 - - - 0.00 0.00 70.8   2.8 49.6   5.7
Graton-West (Dutton Ranch) 5/10/26 1300 71.5   3.0 76   13 63.5   2.4 4.7   0.2 SE | 146 8.9   0.3 0.00 0.00 72.2   2.9 50.4   5.2
Graton-South (Mill Station Rd) 5/10/26 1300 69.2   1.1 66   6 57.3   1.6 2.7   0.2 SW | 232 5.6   0.5 0.00 0.00 69.8   1.3 48.2   3.5
Occidental (Horseshoe Bend) 5/10/26 1245 64.9   3.4 73   7 55.9   0.4 - - - 0.00 0.00 65.5   3.2 46.6   2.7
Sexton Valley (Jacqueline's Blk) 5/10/26 1300 68.5   1.4 71   5 58.8   0.8 1.8   1.0 SW | 236 6.7   0.1 0.00 0.00 69.1   1.9 48.6   4.3
Sebastopol Hills (Burnside Rd) 5/10/26 1300 66.1   1.5 77   7 58.5   1.2 4.1   1.8 SSW | 210 8.1   3.5 0.00 0.00 67.0   1.1 48.6   1.3
Pleasant Hill 5/10/26 1300 68.9   2.6 65   7 56.8   0.5 3.6   1.1 SSE | 167 6.8   2.9 0.00 0.00 69.4   2.4 49.1   5.0
Seaview/Fort Ross (Hirsch) 5/10/26 1300 67.1   4.7 64   7 54.6   1.0 4.1   1.5 W | 267 6.7   1.2 0.00 0.00 67.4   4.3 45.4   9.0
Max     76.4 98 69.8 5.1 - 9.6 0.00 0.00 76.4 51.8
Avg     70.3 64 57.2 3.1 - 7.3 0.00 - - -
Min     64.9 51 53.6 0.0 - 0.0 0.00 0.00 65.5 45.4